Time;durP1;ratioP1;P1;durP2;ratioP2;P2;SDS_P1;SDS_P2;PMS_P1;PMS_P2;Temp;Humidity;BMP_temperature;BMP_pressure;BME280_temperature;BME280_humidity;BME280_pressure;Samples;Min_cycle;Max_cycle;Signal;HPM_P1;HPM_P2
2021/08/01 00:00:39;;;;;;;13.88;4.75;;;;;;;;;;1490378;39;20425;-80
2021/08/01 00:01:41;;;;;;;9.10;4.85;;;;;;;;;;1485669;39;20683;-81
2021/08/01 00:02:43;;;;;;;14.15;5.18;;;;;;;;;;1484427;40;20411;-80
2021/08/01 00:03:45;;;;;;;12.15;5.00;;;;;;;;;;1482181;40;20400;-77
2021/08/01 00:04:58;;;;;;;15.00;5.35;;;;;;;;;;1482693;40;20445;-80
2021/08/01 00:06:00;;;;;;;10.55;4.55;;;;;;;;;;1486037;40;20418;-80
2021/08/01 00:07:02;;;;;;;8.30;4.13;;;;;;;;;;1486880;40;20419;-80
2021/08/01 00:08:04;;;;;;;10.70;3.80;;;;;;;;;;1486852;39;20391;-81
2021/08/01 00:09:07;;;;;;;7.97;3.97;;;;;;;;;;1485443;39;21012;-82
2021/08/01 00:10:09;;;;;;;13.18;4.90;;;;;;;;;;1486177;39;20836;-82
2021/08/01 00:11:12;;;;;;;11.10;4.65;;;;;;;;;;1482055;40;20416;-82
2021/08/01 00:12:13;;;;;;;14.88;4.68;;;;;;;;;;1482313;39;20701;-81
2021/08/01 00:13:15;;;;;;;10.77;4.55;;;;;;;;;;1490592;39;20409;-82
2021/08/01 00:14:17;;;;;;;12.25;4.32;;;;;;;;;;1490781;39;20538;-82
2021/08/01 00:15:18;;;;;;;8.75;4.32;;;;;;;;;;1491034;39;20643;-82
2021/08/01 00:16:22;;;;;;;7.93;3.90;;;;;;;;;;1485710;40;20418;-82
2021/08/01 00:17:24;;;;;;;10.18;4.18;;;;;;;;;;1485980;40;20799;-82
2021/08/01 00:18:26;;;;;;;8.90;3.83;;;;;;;;;;1483751;40;20472;-82
2021/08/01 00:19:27;;;;;;;11.50;4.30;;;;;;;;;;1485505;40;20403;-83
2021/08/01 00:20:29;;;;;;;8.50;4.07;;;;;;;;;;1477786;40;20418;-82
2021/08/01 00:21:31;;;;;;;8.20;4.80;;;;;;;;;;1482033;39;20467;-84
2021/08/01 00:22:33;;;;;;;10.65;5.22;;;;;;;;;;1486108;40;20390;-83
2021/08/01 00:23:35;;;;;;;12.93;5.68;;;;;;;;;;1483931;39;20414;-83
2021/08/01 00:24:37;;;;;;;9.57;4.15;;;;;;;;;;1488885;39;20429;-83
2021/08/01 00:25:39;;;;;;;7.30;3.60;;;;;;;;;;1486503;39;20406;-83
2021/08/01 00:26:40;;;;;;;7.47;4.43;;;;;;;;;;1490201;39;20694;-82
2021/08/01 00:27:43;;;;;;;11.80;3.92;;;;;;;;;;1486263;39;20450;-82
2021/08/01 00:28:45;;;;;;;9.32;4.20;;;;;;;;;;1485840;40;20521;-83
2021/08/01 00:29:46;;;;;;;8.60;4.80;;;;;;;;;;1485120;39;20462;-82
2021/08/01 00:30:48;;;;;;;10.63;4.32;;;;;;;;;;1487004;39;20489;-82
2021/08/01 00:31:49;;;;;;;8.77;4.82;;;;;;;;;;1483078;40;21203;-82
2021/08/01 00:32:51;;;;;;;12.02;4.65;;;;;;;;;;1481753;40;20419;-82
2021/08/01 00:33:53;;;;;;;8.65;4.38;;;;;;;;;;1487291;39;21018;-82
2021/08/01 00:34:54;;;;;;;14.35;4.97;;;;;;;;;;1494486;39;20555;-82
2021/08/01 00:35:56;;;;;;;13.68;5.07;;;;;;;;;;1489865;39;20435;-83
2021/08/01 00:36:57;;;;;;;10.82;4.80;;;;;;;;;;1489538;39;20401;-83
2021/08/01 00:37:59;;;;;;;10.43;4.45;;;;;;;;;;1493216;39;20727;-83
2021/08/01 00:39:00;;;;;;;12.15;4.30;;;;;;;;;;1481210;40;20433;-82
2021/08/01 00:40:04;;;;;;;8.40;3.78;;;;;;;;;;1481985;39;20476;-82
2021/08/01 00:41:06;;;;;;;7.93;3.70;;;;;;;;;;1486201;40;20521;-82
2021/08/01 00:42:08;;;;;;;8.75;4.80;;;;;;;;;;1481992;40;20559;-82
2021/08/01 00:43:09;;;;;;;9.43;4.32;;;;;;;;;;1481937;40;20456;-83
2021/08/01 00:44:11;;;;;;;8.75;4.90;;;;;;;;;;1485705;39;20676;-83
2021/08/01 00:45:13;;;;;;;11.40;4.57;;;;;;;;;;1490843;39;20453;-82
2021/08/01 00:46:16;;;;;;;12.15;4.68;;;;;;;;;;1490796;39;20523;-82
2021/08/01 00:47:18;;;;;;;11.50;4.45;;;;;;;;;;1486243;40;20512;-82
2021/08/01 00:48:23;;;;;;;9.63;5.80;;;;;;;;;;1486329;39;20459;-82
2021/08/01 00:49:25;;;;;;;8.45;4.53;;;;;;;;;;1485792;40;21077;-82
2021/08/01 00:50:27;;;;;;;10.07;4.28;;;;;;;;;;1485826;39;20810;-82
2021/08/01 00:51:29;;;;;;;6.13;4.55;;;;;;;;;;1490942;39;20413;-82
2021/08/01 00:52:31;;;;;;;11.73;5.00;;;;;;;;;;1486075;40;20455;-83
2021/08/01 00:53:33;;;;;;;8.50;4.05;;;;;;;;;;1477665;40;20438;-83
2021/08/01 00:54:35;;;;;;;9.98;4.97;;;;;;;;;;1485063;39;20418;-83
2021/08/01 00:55:40;;;;;;;11.02;4.47;;;;;;;;;;1490203;39;20884;-82
2021/08/01 00:56:42;;;;;;;8.52;4.82;;;;;;;;;;1490689;39;20509;-83
2021/08/01 00:57:43;;;;;;;9.82;4.13;;;;;;;;;;1485994;40;20407;-82
2021/08/01 00:58:45;;;;;;;8.75;4.53;;;;;;;;;;1481827;39;20778;-82
2021/08/01 00:59:46;;;;;;;7.97;4.15;;;;;;;;;;1486144;39;20435;-82
2021/08/01 01:02:15;;;;;;;12.05;5.22;;;;;;;;;;1492219;39;20773;-82
2021/08/01 01:03:18;;;;;;;9.60;5.55;;;;;;;;;;1490444;39;20486;-82
2021/08/01 01:04:39;;;;;;;11.88;4.93;;;;;;;;;;1490598;39;20397;-81
2021/08/01 01:05:51;;;;;;;12.52;5.95;;;;;;;;;;1495049;39;20396;-81
2021/08/01 01:07:27;;;;;;;8.35;5.28;;;;;;;;;;1494882;39;20917;-82
2021/08/01 01:08:46;;;;;;;12.40;5.97;;;;;;;;;;1481252;39;20416;-82
2021/08/01 01:10:02;;;;;;;9.90;5.60;;;;;;;;;;1487519;39;20387;-83
2021/08/01 01:11:05;;;;;;;13.98;5.93;;;;;;;;;;1490228;39;20437;-83
2021/08/01 01:12:15;;;;;;;12.15;5.75;;;;;;;;;;1486160;39;20470;-82
2021/08/01 01:13:27;;;;;;;12.77;5.47;;;;;;;;;;1490988;39;20775;-81
2021/08/01 01:14:30;;;;;;;12.05;5.78;;;;;;;;;;1485920;40;20414;-82
2021/08/01 01:15:37;;;;;;;11.50;5.90;;;;;;;;;;1486088;39;20410;-83
2021/08/01 01:16:48;;;;;;;12.57;6.07;;;;;;;;;;1495129;39;20379;-82
2021/08/01 01:17:53;;;;;;;12.17;5.60;;;;;;;;;;1492407;39;20398;-82
2021/08/01 01:18:59;;;;;;;13.73;6.00;;;;;;;;;;1485711;40;20406;-83
2021/08/01 01:20:28;;;;;;;13.07;6.55;;;;;;;;;;1486272;39;20505;-81
2021/08/01 01:21:47;;;;;;;13.63;6.28;;;;;;;;;;1490682;39;20409;-82
2021/08/01 01:22:58;;;;;;;14.10;6.30;;;;;;;;;;1490959;39;20834;-82
2021/08/01 01:24:15;;;;;;;12.35;6.38;;;;;;;;;;1490816;39;20449;-81
2021/08/01 01:25:24;;;;;;;13.85;6.28;;;;;;;;;;1490680;39;20409;-82
2021/08/01 01:26:38;;;;;;;16.67;5.93;;;;;;;;;;1490847;39;20389;-82
2021/08/01 01:28:11;;;;;;;12.85;5.93;;;;;;;;;;1490812;39;20508;-82
2021/08/01 01:29:22;;;;;;;14.82;5.88;;;;;;;;;;1481523;40;20454;-82
2021/08/01 01:30:25;;;;;;;10.10;5.32;;;;;;;;;;1486828;39;20451;-82
2021/08/01 01:31:36;;;;;;;12.43;6.35;;;;;;;;;;1490807;39;20676;-81
2021/08/01 01:32:51;;;;;;;13.52;6.38;;;;;;;;;;1490738;39;20425;-81
2021/08/01 01:34:08;;;;;;;10.98;5.80;;;;;;;;;;1490833;39;20401;-81
2021/08/01 01:35:17;;;;;;;17.17;6.53;;;;;;;;;;1485932;40;20464;-81
2021/08/01 01:36:29;;;;;;;13.40;5.53;;;;;;;;;;1482461;40;20400;-81
2021/08/01 01:37:31;;;;;;;14.38;5.88;;;;;;;;;;1487000;39;20407;-82
2021/08/01 01:38:34;;;;;;;14.00;5.70;;;;;;;;;;1490765;39;20443;-83
2021/08/01 01:39:38;;;;;;;15.80;6.17;;;;;;;;;;1490770;39;20555;-83
2021/08/01 01:40:40;;;;;;;14.85;6.18;;;;;;;;;;1485779;40;21196;-82
2021/08/01 01:41:45;;;;;;;17.80;6.60;;;;;;;;;;1482055;40;20408;-82
2021/08/01 01:42:52;;;;;;;16.00;6.22;;;;;;;;;;1482148;40;20432;-81
2021/08/01 01:43:54;;;;;;;14.55;5.68;;;;;;;;;;1486969;39;20431;-82
2021/08/01 01:44:58;;;;;;;11.77;5.47;;;;;;;;;;1490625;39;20417;-81
2021/08/01 01:46:00;;;;;;;13.27;6.05;;;;;;;;;;1490847;39;20433;-81
2021/08/01 01:47:02;;;;;;;12.82;5.80;;;;;;;;;;1491069;39;20402;-81
2021/08/01 01:48:04;;;;;;;11.52;5.38;;;;;;;;;;1491292;39;20871;-81
2021/08/01 01:49:09;;;;;;;13.88;5.25;;;;;;;;;;1487268;40;20447;-82
2021/08/01 01:50:11;;;;;;;18.83;6.32;;;;;;;;;;1488549;39;20430;-83
2021/08/01 01:51:14;;;;;;;12.80;5.50;;;;;;;;;;1493820;39;20413;-82
2021/08/01 01:52:17;;;;;;;15.77;5.60;;;;;;;;;;1494077;39;20478;-82
2021/08/01 01:53:20;;;;;;;16.73;6.43;;;;;;;;;;1483901;40;20433;-82
2021/08/01 01:54:22;;;;;;;14.93;5.68;;;;;;;;;;1479427;40;20474;-82
2021/08/01 01:55:24;;;;;;;20.25;7.75;;;;;;;;;;1488791;39;20508;-81
2021/08/01 01:56:29;;;;;;;20.98;6.90;;;;;;;;;;1495411;39;20429;-81
2021/08/01 01:57:30;;;;;;;16.05;6.60;;;;;;;;;;1495106;39;20643;-83
2021/08/01 01:58:34;;;;;;;14.95;6.38;;;;;;;;;;1495588;39;20397;-83
2021/08/01 01:59:38;;;;;;;18.60;7.22;;;;;;;;;;1495572;39;20411;-83
2021/08/01 02:00:40;;;;;;;17.63;6.63;;;;;;;;;;1491749;39;20473;-81
2021/08/01 02:01:41;;;;;;;20.58;8.13;;;;;;;;;;1485938;40;20464;-82
2021/08/01 02:02:44;;;;;;;18.90;7.75;;;;;;;;;;1487697;39;20387;-82
2021/08/01 02:03:47;;;;;;;21.83;7.88;;;;;;;;;;1496076;39;20419;-82
2021/08/01 02:04:48;;;;;;;20.15;8.30;;;;;;;;;;1491444;39;20802;-82
2021/08/01 02:05:50;;;;;;;17.83;8.38;;;;;;;;;;1487287;39;20391;-82
2021/08/01 02:06:51;;;;;;;25.20;9.10;;;;;;;;;;1490892;39;21015;-82
2021/08/01 02:07:53;;;;;;;14.85;7.93;;;;;;;;;;1490539;39;20498;-83
2021/08/01 02:09:18;;;;;;;16.58;7.90;;;;;;;;;;1482273;40;20389;-82
2021/08/01 02:10:22;;;;;;;17.95;8.15;;;;;;;;;;1485278;39;20409;-82
2021/08/01 02:11:41;;;;;;;19.27;8.82;;;;;;;;;;1489725;39;20413;-82
2021/08/01 02:12:52;;;;;;;21.52;10.32;;;;;;;;;;1490552;39;20415;-82
2021/08/01 02:14:09;;;;;;;21.80;9.52;;;;;;;;;;1485794;40;21052;-82
2021/08/01 02:15:13;;;;;;;18.77;8.67;;;;;;;;;;1487065;39;20415;-83
2021/08/01 02:16:14;;;;;;;21.42;8.88;;;;;;;;;;1485699;40;20435;-83
2021/08/01 02:17:24;;;;;;;19.77;9.18;;;;;;;;;;1485949;39;20402;-82
2021/08/01 02:18:36;;;;;;;15.52;9.07;;;;;;;;;;1490514;39;20764;-82
2021/08/01 02:19:41;;;;;;;19.20;8.80;;;;;;;;;;1490689;39;20743;-83
2021/08/01 02:20:48;;;;;;;20.10;8.57;;;;;;;;;;1490648;39;20402;-82
2021/08/01 02:21:51;;;;;;;15.38;8.75;;;;;;;;;;1490329;39;20441;-83
2021/08/01 02:22:54;;;;;;;17.40;8.75;;;;;;;;;;1490155;39;20415;-82
2021/08/01 02:23:57;;;;;;;16.55;9.07;;;;;;;;;;1485402;40;20430;-83
2021/08/01 02:25:00;;;;;;;16.52;8.43;;;;;;;;;;1481813;40;20448;-82
2021/08/01 02:26:03;;;;;;;17.85;7.97;;;;;;;;;;1481693;40;20404;-82
2021/08/01 02:27:07;;;;;;;19.05;8.23;;;;;;;;;;1485957;39;20414;-82
2021/08/01 02:28:09;;;;;;;18.33;8.32;;;;;;;;;;1490800;39;20820;-81
2021/08/01 02:29:12;;;;;;;19.25;9.27;;;;;;;;;;1485845;40;20720;-81
2021/08/01 02:30:16;;;;;;;18.95;9.68;;;;;;;;;;1485981;39;20527;-82
2021/08/01 02:31:19;;;;;;;18.30;9.65;;;;;;;;;;1490215;39;20913;-82
2021/08/01 02:32:21;;;;;;;21.40;9.38;;;;;;;;;;1490146;39;20393;-81
2021/08/01 02:33:27;;;;;;;15.45;8.55;;;;;;;;;;1490534;39;20453;-81
2021/08/01 02:34:30;;;;;;;19.35;9.27;;;;;;;;;;1490644;39;20401;-82
2021/08/01 02:35:32;;;;;;;20.60;10.13;;;;;;;;;;1486010;40;20726;-81
2021/08/01 02:36:35;;;;;;;22.15;9.68;;;;;;;;;;1481969;40;20397;-83
2021/08/01 02:37:37;;;;;;;19.05;8.93;;;;;;;;;;1486340;39;20406;-83
2021/08/01 02:38:40;;;;;;;22.95;9.80;;;;;;;;;;1481591;40;21142;-82
2021/08/01 02:39:43;;;;;;;23.77;9.55;;;;;;;;;;1478197;40;20719;-81
2021/08/01 02:40:46;;;;;;;18.98;10.00;;;;;;;;;;1485798;39;20439;-82
2021/08/01 02:41:50;;;;;;;21.52;10.23;;;;;;;;;;1486007;40;20422;-83
2021/08/01 02:42:53;;;;;;;17.08;9.98;;;;;;;;;;1486323;39;20524;-81
2021/08/01 02:43:57;;;;;;;19.90;9.48;;;;;;;;;;1490760;39;21088;-81
2021/08/01 02:45:01;;;;;;;22.33;10.80;;;;;;;;;;1489522;39;20857;-82
2021/08/01 02:46:04;;;;;;;20.95;11.13;;;;;;;;;;1486048;40;20391;-81
2021/08/01 02:47:08;;;;;;;23.35;9.98;;;;;;;;;;1486040;39;20423;-81
2021/08/01 02:48:12;;;;;;;19.10;10.90;;;;;;;;;;1489865;39;20485;-81
2021/08/01 02:49:24;;;;;;;20.27;9.82;;;;;;;;;;1485656;39;20438;-82
2021/08/01 02:50:29;;;;;;;20.50;10.25;;;;;;;;;;1485794;40;20474;-82
2021/08/01 02:51:32;;;;;;;22.73;10.15;;;;;;;;;;1485918;39;20468;-81
2021/08/01 02:52:46;;;;;;;16.42;9.10;;;;;;;;;;1490427;39;20409;-84
2021/08/01 02:53:53;;;;;;;18.55;10.40;;;;;;;;;;1485586;40;20419;-81
2021/08/01 02:54:57;;;;;;;21.25;10.45;;;;;;;;;;1486137;39;20450;-82
2021/08/01 02:56:03;;;;;;;24.50;10.60;;;;;;;;;;1490482;39;20645;-82
2021/08/01 02:57:10;;;;;;;21.45;10.68;;;;;;;;;;1485052;40;20854;-83
2021/08/01 02:58:12;;;;;;;24.90;11.38;;;;;;;;;;1486519;39;20479;-83
2021/08/01 02:59:15;;;;;;;20.33;11.57;;;;;;;;;;1485600;40;20800;-82
2021/08/01 03:00:18;;;;;;;24.50;11.07;;;;;;;;;;1481778;40;20522;-82
2021/08/01 03:01:20;;;;;;;22.38;11.75;;;;;;;;;;1485871;39;20410;-81
2021/08/01 03:02:22;;;;;;;20.95;10.52;;;;;;;;;;1481905;40;20412;-82
2021/08/01 03:03:26;;;;;;;25.23;11.40;;;;;;;;;;1482394;39;20489;-82
2021/08/01 03:04:28;;;;;;;23.75;10.80;;;;;;;;;;1486112;40;20539;-81
2021/08/01 03:05:29;;;;;;;23.35;11.63;;;;;;;;;;1482396;40;20396;-81
2021/08/01 03:06:33;;;;;;;23.77;10.32;;;;;;;;;;1486416;39;20459;-81
2021/08/01 03:07:38;;;;;;;23.23;11.15;;;;;;;;;;1481864;40;20381;-83
2021/08/01 03:08:41;;;;;;;19.25;10.15;;;;;;;;;;1482951;39;20470;-82
2021/08/01 03:09:42;;;;;;;26.52;11.68;;;;;;;;;;1490978;39;20413;-82
2021/08/01 03:10:48;;;;;;;25.40;11.83;;;;;;;;;;1482115;40;20470;-81
2021/08/01 03:11:50;;;;;;;25.60;11.27;;;;;;;;;;1482712;39;20397;-81
2021/08/01 03:12:52;;;;;;;23.75;12.13;;;;;;;;;;1486429;40;20450;-82
2021/08/01 03:13:54;;;;;;;25.47;12.00;;;;;;;;;;1486566;39;20896;-81
2021/08/01 03:14:55;;;;;;;24.98;11.98;;;;;;;;;;1486065;40;20425;-82
2021/08/01 03:15:57;;;;;;;23.35;12.13;;;;;;;;;;1482536;40;20501;-81
2021/08/01 03:16:59;;;;;;;25.17;11.70;;;;;;;;;;1482580;40;20518;-82
2021/08/01 03:18:00;;;;;;;23.65;12.18;;;;;;;;;;1489535;39;20404;-82
2021/08/01 03:19:02;;;;;;;20.23;10.48;;;;;;;;;;1495485;39;20404;-81
2021/08/01 03:20:05;;;;;;;23.25;11.98;;;;;;;;;;1494983;39;20395;-82
2021/08/01 03:21:07;;;;;;;19.95;12.07;;;;;;;;;;1495454;39;20391;-82
2021/08/01 03:22:09;;;;;;;21.58;11.27;;;;;;;;;;1486211;40;20499;-82
2021/08/01 03:23:10;;;;;;;26.30;11.65;;;;;;;;;;1486505;39;20502;-82
2021/08/01 03:24:12;;;;;;;26.92;12.82;;;;;;;;;;1486257;40;20407;-82
2021/08/01 03:25:14;;;;;;;27.60;12.45;;;;;;;;;;1486151;39;20407;-82
2021/08/01 03:26:15;;;;;;;25.80;12.25;;;;;;;;;;1490320;39;20448;-82
2021/08/01 03:27:17;;;;;;;26.13;11.48;;;;;;;;;;1490031;39;20502;-81
2021/08/01 03:28:18;;;;;;;25.45;13.40;;;;;;;;;;1490586;39;20393;-82
2021/08/01 03:29:20;;;;;;;25.25;12.10;;;;;;;;;;1482081;40;20436;-81
2021/08/01 03:30:22;;;;;;;30.02;14.05;;;;;;;;;;1482157;39;20488;-82
2021/08/01 03:31:23;;;;;;;30.88;13.52;;;;;;;;;;1495049;39;20805;-82
2021/08/01 03:32:26;;;;;;;31.27;12.48;;;;;;;;;;1486324;40;20406;-82
2021/08/01 03:33:27;;;;;;;31.45;13.50;;;;;;;;;;1482415;39;20400;-82
2021/08/01 03:34:29;;;;;;;29.33;13.77;;;;;;;;;;1490519;39;20389;-81
2021/08/01 03:35:30;;;;;;;28.70;12.77;;;;;;;;;;1494923;39;20947;-82
2021/08/01 03:36:32;;;;;;;27.70;13.30;;;;;;;;;;1495366;39;20839;-82
2021/08/01 03:37:34;;;;;;;30.42;12.82;;;;;;;;;;1490311;39;20799;-84
2021/08/01 03:38:36;;;;;;;25.30;12.63;;;;;;;;;;1490529;39;20401;-83
2021/08/01 03:39:37;;;;;;;27.73;12.65;;;;;;;;;;1495206;39;20870;-83
2021/08/01 03:40:39;;;;;;;25.77;12.63;;;;;;;;;;1490470;39;20405;-82
2021/08/01 03:41:41;;;;;;;24.17;11.77;;;;;;;;;;1490426;39;20433;-82
2021/08/01 03:42:43;;;;;;;23.63;12.00;;;;;;;;;;1495352;39;21110;-82
2021/08/01 03:43:45;;;;;;;25.05;12.68;;;;;;;;;;1490134;39;20404;-82
2021/08/01 03:44:46;;;;;;;24.40;12.63;;;;;;;;;;1486626;39;20682;-82
2021/08/01 03:45:48;;;;;;;25.02;13.32;;;;;;;;;;1478152;40;20684;-82
2021/08/01 03:46:49;;;;;;;28.27;12.95;;;;;;;;;;1478480;39;20421;-82
2021/08/01 03:47:51;;;;;;;24.80;13.43;;;;;;;;;;1486130;39;20407;-82
2021/08/01 03:48:52;;;;;;;26.17;13.45;;;;;;;;;;1482532;40;20581;-82
2021/08/01 03:49:54;;;;;;;23.33;13.07;;;;;;;;;;1477762;40;20707;-83
2021/08/01 03:50:55;;;;;;;24.08;12.77;;;;;;;;;;1482616;39;20436;-82
2021/08/01 03:51:57;;;;;;;29.60;13.15;;;;;;;;;;1490505;39;20498;-82
2021/08/01 03:52:58;;;;;;;25.10;12.73;;;;;;;;;;1494973;39;21071;-82
2021/08/01 03:54:00;;;;;;;24.40;12.60;;;;;;;;;;1490467;39;20679;-82
2021/08/01 03:55:02;;;;;;;21.92;12.05;;;;;;;;;;1491073;39;20405;-82
2021/08/01 03:56:04;;;;;;;27.27;12.60;;;;;;;;;;1490580;39;20557;-83
2021/08/01 03:57:06;;;;;;;26.50;13.30;;;;;;;;;;1490137;39;20427;-82
2021/08/01 03:58:08;;;;;;;27.77;13.70;;;;;;;;;;1486190;40;20411;-82
2021/08/01 03:59:10;;;;;;;25.35;12.50;;;;;;;;;;1478046;40;20434;-82
2021/08/01 04:00:12;;;;;;;28.45;13.00;;;;;;;;;;1486541;39;20415;-82
2021/08/01 04:01:16;;;;;;;29.33;13.10;;;;;;;;;;1486455;39;20391;-82
2021/08/01 04:02:17;;;;;;;23.45;12.88;;;;;;;;;;1490482;39;20870;-82
2021/08/01 04:03:19;;;;;;;26.75;14.07;;;;;;;;;;1486536;40;20390;-82
2021/08/01 04:04:21;;;;;;;30.63;14.83;;;;;;;;;;1486423;39;20404;-82
2021/08/01 04:05:23;;;;;;;25.67;13.93;;;;;;;;;;1490651;39;21105;-82
2021/08/01 04:06:24;;;;;;;28.42;13.30;;;;;;;;;;1486336;39;20446;-82
2021/08/01 04:07:26;;;;;;;29.52;14.35;;;;;;;;;;1490312;39;20416;-82
2021/08/01 04:08:27;;;;;;;24.80;13.13;;;;;;;;;;1495143;39;20484;-82
2021/08/01 04:09:29;;;;;;;27.75;13.82;;;;;;;;;;1488949;39;20526;-82
2021/08/01 04:10:31;;;;;;;28.83;14.10;;;;;;;;;;1481967;40;20659;-82
2021/08/01 04:11:33;;;;;;;29.48;13.68;;;;;;;;;;1486359;39;20422;-82
2021/08/01 04:12:34;;;;;;;20.90;12.13;;;;;;;;;;1490750;39;20498;-83
2021/08/01 04:13:37;;;;;;;26.25;14.38;;;;;;;;;;1490918;39;20814;-83
2021/08/01 04:14:38;;;;;;;30.73;14.60;;;;;;;;;;1490637;39;20853;-82
2021/08/01 04:15:47;;;;;;;28.55;14.10;;;;;;;;;;1490791;39;20880;-82
2021/08/01 04:16:49;;;;;;;26.48;13.55;;;;;;;;;;1486589;40;20387;-82
2021/08/01 04:17:50;;;;;;;28.17;15.05;;;;;;;;;;1481605;39;20463;-83
2021/08/01 04:18:52;;;;;;;27.48;14.88;;;;;;;;;;1486278;39;20488;-82
2021/08/01 04:19:54;;;;;;;25.42;13.70;;;;;;;;;;1481686;40;21029;-82
2021/08/01 04:20:56;;;;;;;24.40;13.80;;;;;;;;;;1478160;40;20399;-82
2021/08/01 04:21:57;;;;;;;28.90;13.88;;;;;;;;;;1486278;39;20481;-83
2021/08/01 04:22:59;;;;;;;27.50;14.52;;;;;;;;;;1486499;40;20463;-82
2021/08/01 04:24:01;;;;;;;27.80;14.48;;;;;;;;;;1482008;40;20799;-82
2021/08/01 04:25:03;;;;;;;34.42;15.32;;;;;;;;;;1478359;40;20481;-83
2021/08/01 04:26:06;;;;;;;29.48;13.32;;;;;;;;;;1482370;40;20476;-83
2021/08/01 04:27:07;;;;;;;24.60;13.65;;;;;;;;;;1486684;39;20422;-82
2021/08/01 04:28:09;;;;;;;30.88;15.15;;;;;;;;;;1486337;40;20719;-82
2021/08/01 04:29:11;;;;;;;27.15;13.93;;;;;;;;;;1478597;40;20426;-82
2021/08/01 04:30:12;;;;;;;27.58;13.43;;;;;;;;;;1484363;39;20428;-82
2021/08/01 04:31:15;;;;;;;27.80;14.40;;;;;;;;;;1489079;40;20419;-83
2021/08/01 04:32:17;;;;;;;26.23;14.45;;;;;;;;;;1489589;39;20391;-82
2021/08/01 04:33:19;;;;;;;34.65;15.60;;;;;;;;;;1488590;40;20415;-81
2021/08/01 04:34:20;;;;;;;26.73;13.80;;;;;;;;;;1485074;40;20691;-79
2021/08/01 04:35:22;;;;;;;27.50;15.27;;;;;;;;;;1485184;40;20486;-81
2021/08/01 04:36:24;;;;;;;40.75;15.70;;;;;;;;;;1487254;40;20405;-81
2021/08/01 04:37:26;;;;;;;27.20;14.93;;;;;;;;;;1492831;39;20490;-82
2021/08/01 04:38:28;;;;;;;33.10;16.63;;;;;;;;;;1496161;39;20445;-82
2021/08/01 04:39:29;;;;;;;34.42;16.65;;;;;;;;;;1488016;40;20835;-81
2021/08/01 04:40:31;;;;;;;32.40;16.58;;;;;;;;;;1479493;40;20458;-81
2021/08/01 04:41:32;;;;;;;36.08;16.80;;;;;;;;;;1479946;40;20410;-82
2021/08/01 04:42:34;;;;;;;26.42;16.40;;;;;;;;;;1489530;39;20403;-83
2021/08/01 04:43:36;;;;;;;31.17;17.33;;;;;;;;;;1494591;39;20541;-82
2021/08/01 04:44:38;;;;;;;36.53;17.45;;;;;;;;;;1495903;39;20466;-84
2021/08/01 04:45:39;;;;;;;32.70;16.50;;;;;;;;;;1488337;40;20415;-82
2021/08/01 04:46:41;;;;;;;34.22;16.70;;;;;;;;;;1482867;40;20392;-82
2021/08/01 04:47:42;;;;;;;34.95;17.33;;;;;;;;;;1483806;39;20428;-82
2021/08/01 04:48:44;;;;;;;31.13;16.30;;;;;;;;;;1491340;39;20397;-82
2021/08/01 04:49:46;;;;;;;31.30;17.02;;;;;;;;;;1491001;39;20409;-82
2021/08/01 04:50:47;;;;;;;29.13;17.80;;;;;;;;;;1490760;39;20874;-82
2021/08/01 04:51:49;;;;;;;35.50;18.10;;;;;;;;;;1490502;39;20397;-82
2021/08/01 04:52:52;;;;;;;28.52;16.67;;;;;;;;;;1486472;39;20394;-82
2021/08/01 04:53:53;;;;;;;32.28;16.80;;;;;;;;;;1490383;39;20553;-82
2021/08/01 04:54:55;;;;;;;28.05;16.80;;;;;;;;;;1486455;39;20447;-82
2021/08/01 04:55:56;;;;;;;37.17;18.08;;;;;;;;;;1486027;39;20406;-82
2021/08/01 04:56:58;;;;;;;32.75;18.05;;;;;;;;;;1490232;39;20492;-82
2021/08/01 04:58:02;;;;;;;31.95;17.85;;;;;;;;;;1495274;39;20411;-82
2021/08/01 04:59:04;;;;;;;38.35;19.40;;;;;;;;;;1490876;39;20936;-89
2021/08/01 05:00:07;;;;;;;30.10;18.33;;;;;;;;;;1486727;39;20446;-86
2021/08/01 05:01:13;;;;;;;35.03;17.43;;;;;;;;;;1486206;39;20816;-84
2021/08/01 05:02:15;;;;;;;33.92;17.88;;;;;;;;;;1486587;39;20402;-83
2021/08/01 05:03:16;;;;;;;32.60;17.48;;;;;;;;;;1486729;39;20822;-84
2021/08/01 05:04:19;;;;;;;37.90;18.60;;;;;;;;;;1486086;39;21003;-83
2021/08/01 05:05:21;;;;;;;31.63;17.90;;;;;;;;;;1486650;39;20415;-83
2021/08/01 05:06:23;;;;;;;38.22;18.58;;;;;;;;;;1490227;39;20417;-83
2021/08/01 05:07:24;;;;;;;29.25;17.50;;;;;;;;;;1495266;39;20399;-84
2021/08/01 05:08:26;;;;;;;34.22;18.42;;;;;;;;;;1490184;39;20389;-84
2021/08/01 05:09:27;;;;;;;31.90;17.58;;;;;;;;;;1490436;39;20449;-84
2021/08/01 05:10:29;;;;;;;32.30;17.73;;;;;;;;;;1485999;40;20427;-83
2021/08/01 05:11:31;;;;;;;30.60;17.80;;;;;;;;;;1486154;39;20447;-83
2021/08/01 05:12:32;;;;;;;28.60;16.90;;;;;;;;;;1490478;39;20497;-83
2021/08/01 05:13:35;;;;;;;30.45;17.85;;;;;;;;;;1482409;40;20403;-84
2021/08/01 05:14:36;;;;;;;25.95;16.17;;;;;;;;;;1486573;39;20414;-85
2021/08/01 05:15:40;;;;;;;27.42;16.70;;;;;;;;;;1490091;39;20416;-85
2021/08/01 05:16:41;;;;;;;28.75;16.90;;;;;;;;;;1486687;39;20414;-84
2021/08/01 05:17:45;;;;;;;32.05;18.00;;;;;;;;;;1490183;39;20412;-83
2021/08/01 05:18:46;;;;;;;24.23;17.20;;;;;;;;;;1494842;39;20457;-84
2021/08/01 05:19:48;;;;;;;33.08;17.77;;;;;;;;;;1490572;39;20447;-84
2021/08/01 05:20:49;;;;;;;26.80;17.38;;;;;;;;;;1485866;39;20471;-84
2021/08/01 05:21:51;;;;;;;34.05;18.55;;;;;;;;;;1482386;40;20490;-83
2021/08/01 05:22:52;;;;;;;32.28;18.45;;;;;;;;;;1482197;39;20444;-84
2021/08/01 05:23:54;;;;;;;33.08;18.30;;;;;;;;;;1482732;40;20417;-83
2021/08/01 05:24:56;;;;;;;31.05;18.42;;;;;;;;;;1477823;40;20532;-84
2021/08/01 05:25:58;;;;;;;33.63;18.85;;;;;;;;;;1486309;39;20708;-84
2021/08/01 05:26:59;;;;;;;37.13;18.48;;;;;;;;;;1490666;39;20486;-83
2021/08/01 05:28:01;;;;;;;35.05;19.92;;;;;;;;;;1486326;40;20435;-83
2021/08/01 05:29:08;;;;;;;36.15;19.00;;;;;;;;;;1478736;39;20438;-84
2021/08/01 05:30:10;;;;;;;32.72;19.17;;;;;;;;;;1486426;39;20414;-85
2021/08/01 05:31:12;;;;;;;31.73;18.50;;;;;;;;;;1490785;39;20530;-83
2021/08/01 05:32:14;;;;;;;30.10;18.67;;;;;;;;;;1490590;39;20397;-83
2021/08/01 05:33:15;;;;;;;36.40;19.27;;;;;;;;;;1485975;39;20669;-84
2021/08/01 05:34:17;;;;;;;35.88;20.38;;;;;;;;;;1486434;39;20520;-84
2021/08/01 05:35:18;;;;;;;36.55;20.55;;;;;;;;;;1486139;39;20441;-83
2021/08/01 05:36:20;;;;;;;36.58;19.77;;;;;;;;;;1481948;40;20926;-83
2021/08/01 05:37:22;;;;;;;34.25;20.02;;;;;;;;;;1481995;39;20770;-83
2021/08/01 05:38:23;;;;;;;39.03;21.77;;;;;;;;;;1490433;39;20409;-84
2021/08/01 05:39:25;;;;;;;33.75;20.08;;;;;;;;;;1490154;39;20480;-83
2021/08/01 05:40:27;;;;;;;33.35;19.92;;;;;;;;;;1489962;39;20806;-84
2021/08/01 05:41:29;;;;;;;40.83;20.58;;;;;;;;;;1486464;40;20415;-83
2021/08/01 05:42:33;;;;;;;37.05;21.73;;;;;;;;;;1481845;39;20549;-84
2021/08/01 05:43:39;;;;;;;37.72;21.15;;;;;;;;;;1486444;39;20395;-85
2021/08/01 05:44:40;;;;;;;45.00;22.00;;;;;;;;;;1486132;40;20487;-84
2021/08/01 05:45:43;;;;;;;37.78;21.80;;;;;;;;;;1482163;39;20511;-83
2021/08/01 05:46:44;;;;;;;44.45;23.73;;;;;;;;;;1490273;39;20461;-83
2021/08/01 05:47:46;;;;;;;43.75;23.70;;;;;;;;;;1494822;39;20387;-83
2021/08/01 05:48:48;;;;;;;41.78;22.30;;;;;;;;;;1494531;39;20459;-83
2021/08/01 05:49:49;;;;;;;37.33;23.65;;;;;;;;;;1494907;39;20408;-84
2021/08/01 05:50:51;;;;;;;38.80;22.85;;;;;;;;;;1494817;39;20418;-83
2021/08/01 05:51:53;;;;;;;40.28;23.17;;;;;;;;;;1490594;39;20404;-83
2021/08/01 05:52:55;;;;;;;45.03;24.67;;;;;;;;;;1485844;39;21293;-84
2021/08/01 05:53:56;;;;;;;38.22;22.70;;;;;;;;;;1486278;39;20485;-83
2021/08/01 05:54:58;;;;;;;39.97;23.45;;;;;;;;;;1485950;39;20585;-83
2021/08/01 05:56:07;;;;;;;42.00;24.70;;;;;;;;;;1486189;40;20434;-83
2021/08/01 05:57:08;;;;;;;40.03;24.55;;;;;;;;;;1487290;39;20410;-83
2021/08/01 05:58:10;;;;;;;42.38;25.23;;;;;;;;;;1495063;39;20392;-83
2021/08/01 05:59:12;;;;;;;39.55;23.67;;;;;;;;;;1490122;39;20409;-84
2021/08/01 06:00:14;;;;;;;43.15;24.95;;;;;;;;;;1485850;39;20660;-83
2021/08/01 06:01:16;;;;;;;39.85;24.02;;;;;;;;;;1490218;39;20409;-83
2021/08/01 06:02:20;;;;;;;40.17;23.83;;;;;;;;;;1490374;39;20397;-83
2021/08/01 06:03:21;;;;;;;35.47;22.75;;;;;;;;;;1486033;39;20392;-83
2021/08/01 06:04:23;;;;;;;38.67;24.65;;;;;;;;;;1486260;39;20495;-83
2021/08/01 06:05:25;;;;;;;37.65;23.85;;;;;;;;;;1476618;40;20762;-84
2021/08/01 06:06:26;;;;;;;37.15;23.67;;;;;;;;;;1482063;39;20932;-83
2021/08/01 06:07:28;;;;;;;36.58;23.98;;;;;;;;;;1485710;40;20501;-83
2021/08/01 06:08:30;;;;;;;38.78;23.65;;;;;;;;;;1486152;39;20415;-83
2021/08/01 06:09:31;;;;;;;32.30;22.27;;;;;;;;;;1477593;40;20430;-84
2021/08/01 06:10:33;;;;;;;34.60;22.48;;;;;;;;;;1473470;40;20636;-83
2021/08/01 06:11:35;;;;;;;35.25;23.42;;;;;;;;;;1481695;40;20912;-84
2021/08/01 06:12:37;;;;;;;27.88;21.02;;;;;;;;;;1477967;40;20398;-85
2021/08/01 06:13:39;;;;;;;29.70;20.70;;;;;;;;;;1482053;40;20808;-84